createdAt,value
2023-02-05T00:01:02.638Z,94923.72
2023-02-05T00:03:31.722Z,94929.09
2023-02-05T00:06:01.622Z,94935.09
2023-02-05T00:08:31.484Z,94946.44
2023-02-05T00:11:08.090Z,94946.94
2023-02-05T00:13:40.374Z,94959.03
2023-02-05T00:16:10.880Z,94958.09
2023-02-05T00:18:39.934Z,94952.91
2023-02-05T00:21:09.759Z,94955.19
2023-02-05T00:23:40.108Z,94964.59
2023-02-05T00:26:11.051Z,94967.53
2023-02-05T00:28:42.589Z,94969.16
2023-02-05T00:31:14.248Z,94972.06
2023-02-05T00:33:44.176Z,94978.84
2023-02-05T00:36:14.809Z,94979.34
2023-02-05T00:38:45.429Z,94982.69
2023-02-05T00:41:15.058Z,94979.47
2023-02-05T00:43:46.003Z,94971.69
2023-02-05T00:46:16.472Z,94968.28
2023-02-05T00:48:45.560Z,94973.75
2023-02-05T00:51:15.996Z,94973.09
2023-02-05T00:53:45.216Z,94978.78
2023-02-05T00:56:14.545Z,94977.91
2023-02-05T00:58:48.504Z,94984.56
2023-02-05T01:01:18.219Z,94984.41
2023-02-05T01:03:47.462Z,94977.59
2023-02-05T01:06:16.420Z,94966.41
2023-02-05T01:08:45.552Z,94965.13
2023-02-05T01:11:15.240Z,94980.47
2023-02-05T01:13:45.743Z,94972.25
2023-02-05T01:16:16.038Z,94980.16
2023-02-05T01:18:45.299Z,94971.28
2023-02-05T01:21:15.150Z,94991.50
2023-02-05T01:23:44.190Z,94968.91
2023-02-05T01:26:13.254Z,94983.47
2023-02-05T01:28:46.793Z,94975.22
2023-02-05T01:31:16.865Z,94983.47
2023-02-05T01:33:46.010Z,94969.06
2023-02-05T01:36:15.259Z,94975.72
2023-02-05T01:38:44.266Z,94992.22
2023-02-05T01:41:16.054Z,94982.19
2023-02-05T01:44:12.081Z,94978.56
2023-02-05T01:46:42.655Z,94982.81
2023-02-05T01:49:17.188Z,94981.47
2023-02-05T01:51:49.166Z,94987.38
2023-02-05T01:54:21.886Z,94986.03
2023-02-05T01:56:55.481Z,94990.25
2023-02-05T01:59:29.426Z,94988.34
2023-02-05T02:02:01.092Z,94978.56
2023-02-05T02:04:39.484Z,94993.63
2023-02-05T02:07:11.322Z,94994.94
2023-02-05T02:09:43.235Z,94998.59
2023-02-05T02:12:14.445Z,95010.53
2023-02-05T02:14:49.539Z,95002.09
2023-02-05T02:17:40.326Z,95007.06
2023-02-05T02:20:12.154Z,95005.84
2023-02-05T02:22:59.794Z,95001.41
2023-02-05T02:25:50.391Z,95000.06
2023-02-05T02:28:25.464Z,95007.06
2023-02-05T02:31:03.365Z,95010.94
2023-02-05T02:33:37.288Z,95016.13
2023-02-05T02:36:14.779Z,95011.69
2023-02-05T02:38:49.995Z,95015.59
2023-02-05T02:41:26.594Z,95025.13
2023-02-05T02:43:59.842Z,95012.59
2023-02-05T02:46:33.357Z,95018.59
2023-02-05T02:49:07.569Z,95020.03
2023-02-05T02:51:41.543Z,95018.97
2023-02-05T02:54:18.236Z,95012.41
2023-02-05T02:56:50.530Z,95022.69
2023-02-05T02:59:26.404Z,95018.53
2023-02-05T03:02:00.658Z,95009.53
2023-02-05T03:04:34.221Z,95018.41
2023-02-05T03:07:10.542Z,95017.00
2023-02-05T03:09:44.782Z,95010.19
2023-02-05T03:12:14.384Z,95013.53
2023-02-05T03:14:44.909Z,95017.09
2023-02-05T03:17:18.942Z,95025.81
2023-02-05T03:19:57.952Z,95020.13
2023-02-05T03:22:27.904Z,95016.91
2023-02-05T03:24:56.996Z,95017.47
2023-02-05T03:27:27.442Z,95023.88
2023-02-05T03:29:59.720Z,95010.03
2023-02-05T03:32:43.054Z,95024.69
2023-02-05T03:35:18.096Z,95024.84
2023-02-05T03:38:02.129Z,95024.84
2023-02-05T03:40:39.692Z,95026.84
2023-02-05T03:43:15.243Z,95027.78
2023-02-05T03:46:00.727Z,95029.13
2023-02-05T03:48:41.556Z,95024.25
2023-02-05T03:51:24.199Z,95035.09
2023-02-05T03:54:06.935Z,95042.72
2023-02-05T03:56:44.711Z,95043.09
2023-02-05T03:59:16.729Z,95043.69
2023-02-05T04:01:52.195Z,95049.38
2023-02-05T04:04:22.157Z,95040.88
2023-02-05T04:06:54.706Z,95053.06
2023-02-05T04:09:25.192Z,95052.94
2023-02-05T04:11:56.080Z,95056.53
2023-02-05T04:14:26.035Z,95047.59
2023-02-05T04:16:56.707Z,95050.47
2023-02-05T04:19:27.808Z,95041.47
2023-02-05T04:21:59.648Z,95048.91
2023-02-05T04:24:30.252Z,95048.41
2023-02-05T04:26:59.158Z,95057.28
2023-02-05T04:29:28.610Z,95056.25
2023-02-05T04:32:01.932Z,95070.16
2023-02-05T04:34:31.467Z,95070.34
2023-02-05T04:37:02.408Z,95070.06
2023-02-05T04:39:32.796Z,95070.88
2023-02-05T04:42:02.227Z,95077.69
2023-02-05T04:44:31.332Z,95079.00
2023-02-05T04:47:02.091Z,95089.69
2023-02-05T04:49:33.497Z,95084.78
2023-02-05T04:52:02.816Z,95088.53
2023-02-05T04:54:32.311Z,95096.22
2023-02-05T04:57:01.831Z,95085.88
2023-02-05T04:59:31.865Z,95098.53
2023-02-05T05:02:02.556Z,95089.81
2023-02-05T05:04:31.775Z,95097.94
2023-02-05T05:07:01.343Z,95113.44
2023-02-05T05:09:30.242Z,95108.38
2023-02-05T05:11:59.381Z,95102.09
2023-02-05T05:14:29.201Z,95108.38
2023-02-05T05:16:58.802Z,95111.72
2023-02-05T05:19:29.213Z,95112.41
2023-02-05T05:22:00.069Z,95121.25
2023-02-05T05:24:29.547Z,95124.47
2023-02-05T05:26:58.643Z,95126.09
2023-02-05T05:29:27.786Z,95126.94
2023-02-05T05:31:57.034Z,95135.41
2023-02-05T05:34:26.113Z,95132.59
2023-02-05T05:36:56.703Z,95139.47
2023-02-05T05:39:43.004Z,95144.03
2023-02-05T05:42:30.408Z,95146.09
2023-02-05T05:44:59.461Z,95151.25
2023-02-05T05:47:28.841Z,95153.84
2023-02-05T05:49:58.527Z,95154.63
2023-02-05T05:52:32.100Z,95156.63
2023-02-05T05:55:01.548Z,95167.06
2023-02-05T05:57:32.327Z,95166.78
2023-02-05T06:00:01.424Z,95171.53
2023-02-05T06:02:32.303Z,95185.56
2023-02-05T06:05:02.521Z,95181.34
2023-02-05T06:07:33.549Z,95187.31
2023-02-05T06:10:03.150Z,95184.28
2023-02-05T06:12:33.185Z,95194.78
2023-02-05T06:15:02.284Z,95198.34
2023-02-05T06:17:33.402Z,95202.28
2023-02-05T06:20:02.529Z,95208.81
2023-02-05T06:22:34.822Z,95224.44
2023-02-05T06:25:05.431Z,95228.78
2023-02-05T06:27:34.477Z,95228.78
2023-02-05T06:30:03.434Z,95232.19
2023-02-05T06:32:34.075Z,95243.47
2023-02-05T06:35:03.470Z,95242.59
2023-02-05T06:37:46.842Z,95253.09
2023-02-05T06:40:18.448Z,95251.59
2023-02-05T06:42:47.413Z,95259.41
2023-02-05T06:45:16.518Z,95262.78
2023-02-05T06:47:46.653Z,95258.84
2023-02-05T06:50:15.877Z,95258.44
2023-02-05T06:52:46.317Z,95256.31
2023-02-05T06:55:15.548Z,95254.94
2023-02-05T06:57:44.813Z,95260.31
2023-02-05T07:00:16.142Z,95269.34
2023-02-05T07:02:45.753Z,95274.47
2023-02-05T07:05:14.970Z,95283.63
2023-02-05T07:07:44.478Z,95283.78
2023-02-05T07:10:15.646Z,95300.78
2023-02-05T07:12:44.805Z,95304.09
2023-02-05T07:15:14.070Z,95306.41
2023-02-05T07:17:43.233Z,95324.19
2023-02-05T07:20:13.690Z,95320.88
2023-02-05T07:22:42.816Z,95315.41
2023-02-05T07:25:12.376Z,95314.59
2023-02-05T07:27:43.831Z,95316.78
2023-02-05T07:30:14.937Z,95322.84
2023-02-05T07:32:44.227Z,95324.63
2023-02-05T07:35:13.299Z,95321.97
2023-02-05T07:37:42.381Z,95336.56
2023-02-05T07:40:12.320Z,95325.31
2023-02-05T07:42:43.662Z,95334.94
2023-02-05T07:45:14.594Z,95342.81
2023-02-05T07:47:44.354Z,95339.25
2023-02-05T07:50:13.730Z,95343.88
2023-02-05T07:52:42.851Z,95348.66
2023-02-05T07:55:15.660Z,95348.84
2023-02-05T07:57:47.175Z,95350.38
2023-02-05T08:00:16.770Z,95355.75
2023-02-05T08:02:45.806Z,95359.38
2023-02-05T08:05:14.861Z,95349.75
2023-02-05T08:07:43.943Z,95357.41
2023-02-05T08:10:15.667Z,95359.69
2023-02-05T08:12:46.294Z,95352.38
2023-02-05T08:15:16.547Z,95363.63
2023-02-05T08:17:46.379Z,95365.72
2023-02-05T08:20:16.176Z,95375.13
2023-02-05T08:22:45.916Z,95362.16
2023-02-05T08:25:16.636Z,95371.59
2023-02-05T08:27:48.294Z,95381.63
2023-02-05T08:30:22.570Z,95381.09
2023-02-05T08:32:53.868Z,95381.16
2023-02-05T08:35:25.493Z,95388.38
2023-02-05T08:37:55.432Z,95385.72
2023-02-05T08:40:24.798Z,95379.84
2023-02-05T08:42:57.951Z,95387.22
2023-02-05T08:45:28.498Z,95386.88
2023-02-05T08:47:57.676Z,95392.41
2023-02-05T08:50:27.741Z,95388.03
2023-02-05T08:52:56.982Z,95391.22
2023-02-05T08:55:26.712Z,95391.91
2023-02-05T08:57:58.069Z,95394.28
2023-02-05T09:00:27.189Z,95401.81
2023-02-05T09:02:56.442Z,95410.59
2023-02-05T09:05:25.575Z,95411.69
2023-02-05T09:07:57.078Z,95406.78
2023-02-05T09:10:26.937Z,95420.06
2023-02-05T09:12:57.432Z,95423.69
2023-02-05T09:15:27.007Z,95426.06
2023-02-05T09:17:56.441Z,95422.88
2023-02-05T09:20:26.236Z,95432.38
2023-02-05T09:22:55.604Z,95427.72
2023-02-05T09:25:25.353Z,95430.47
2023-02-05T09:27:56.579Z,95429.13
2023-02-05T09:30:25.851Z,95434.69
2023-02-05T09:32:55.143Z,95430.38
2023-02-05T09:35:25.046Z,95431.28
2023-02-05T09:37:54.175Z,95437.13
2023-02-05T09:40:28.215Z,95429.25
2023-02-05T09:43:05.103Z,95437.88
2023-02-05T09:45:40.721Z,95440.84
2023-02-05T09:48:31.996Z,95438.63
2023-02-05T09:51:03.494Z,95434.00
2023-02-05T09:53:38.638Z,95433.56
2023-02-05T09:56:11.506Z,95442.13
2023-02-05T09:58:44.146Z,95435.84
2023-02-05T10:01:24.556Z,95442.81
2023-02-05T10:03:58.735Z,95438.91
2023-02-05T10:06:45.026Z,95442.81
2023-02-05T10:09:26.844Z,95443.94
2023-02-05T10:12:05.301Z,95446.69
2023-02-05T10:14:49.373Z,95453.72
2023-02-05T10:17:35.145Z,95448.72
2023-02-05T10:20:29.367Z,95453.13
2023-02-05T10:23:22.710Z,95448.84
2023-02-05T10:26:11.261Z,95449.56
2023-02-05T10:29:13.058Z,95444.50
2023-02-05T10:31:45.869Z,95452.81
2023-02-05T10:34:20.616Z,95442.84
2023-02-05T10:36:53.741Z,95452.44
2023-02-05T10:39:26.712Z,95453.47
2023-02-05T10:42:00.605Z,95449.81
2023-02-05T10:44:34.442Z,95449.00
2023-02-05T10:47:12.056Z,95450.13
2023-02-05T10:49:49.110Z,95444.50
2023-02-05T10:52:18.926Z,95447.47
2023-02-05T10:54:48.774Z,95460.38
2023-02-05T10:57:20.180Z,95453.50
2023-02-05T10:59:55.568Z,95458.09
2023-02-05T11:02:34.852Z,95451.47
2023-02-05T11:05:08.488Z,95452.63
2023-02-05T11:07:42.803Z,95452.06
2023-02-05T11:10:17.418Z,95457.78
2023-02-05T11:12:47.878Z,95458.16
2023-02-05T11:15:23.730Z,95462.59
2023-02-05T11:17:56.211Z,95461.03
2023-02-05T11:20:30.716Z,95455.59
2023-02-05T11:23:24.622Z,95455.63
2023-02-05T11:25:55.897Z,95457.22
2023-02-05T11:28:29.675Z,95462.31
2023-02-05T11:31:21.208Z,95455.16
2023-02-05T11:33:52.845Z,95463.09
2023-02-05T11:36:25.261Z,95448.59
2023-02-05T11:38:57.842Z,95447.00
2023-02-05T11:41:32.365Z,95444.06
2023-02-05T11:44:03.801Z,95449.84
2023-02-05T11:46:38.272Z,95442.69
2023-02-05T11:49:09.185Z,95440.91
2023-02-05T11:51:44.860Z,95443.13
2023-02-05T11:54:22.003Z,95440.16
2023-02-05T11:57:09.428Z,95448.19
2023-02-05T11:59:38.654Z,95452.94
2023-02-05T12:02:35.385Z,95446.69
2023-02-05T12:05:19.453Z,95450.97
2023-02-05T12:07:53.743Z,95454.63
2023-02-05T12:10:30.361Z,95449.00
2023-02-05T12:13:08.710Z,95452.16
2023-02-05T12:15:45.404Z,95448.03
2023-02-05T12:18:28.341Z,95446.25
2023-02-05T12:21:14.517Z,95436.69
2023-02-05T12:24:12.592Z,95442.41
2023-02-05T12:26:45.679Z,95453.91
2023-02-05T12:29:33.286Z,95443.59
2023-02-05T12:32:09.197Z,95448.94
2023-02-05T12:34:47.657Z,95448.56
2023-02-05T12:37:29.919Z,95456.34
2023-02-05T12:40:08.609Z,95458.19
2023-02-05T12:42:43.123Z,95445.66
2023-02-05T12:45:37.131Z,95448.63
2023-02-05T12:48:21.199Z,95448.09
2023-02-05T12:50:59.009Z,95437.44
2023-02-05T12:53:54.847Z,95441.06
2023-02-05T12:56:40.077Z,95435.66
2023-02-05T12:59:16.319Z,95449.88
2023-02-05T13:01:52.838Z,95441.72
2023-02-05T13:04:26.670Z,95437.66
2023-02-05T13:07:01.168Z,95442.97
2023-02-05T13:09:44.228Z,95455.22
2023-02-05T13:12:17.004Z,95453.31
2023-02-05T13:14:56.830Z,95448.59
2023-02-05T13:17:28.782Z,95450.63
2023-02-05T13:20:01.228Z,95447.28
2023-02-05T13:22:52.495Z,95455.34
2023-02-05T13:25:47.547Z,95454.72
2023-02-05T13:28:41.618Z,95457.13
2023-02-05T13:31:35.824Z,95456.78
2023-02-05T13:34:07.358Z,95450.66
2023-02-05T13:37:04.166Z,95460.31
2023-02-05T13:40:14.230Z,95454.84
2023-02-05T13:43:06.124Z,95455.81
2023-02-05T13:45:56.124Z,95453.41
2023-02-05T13:48:46.761Z,95461.84
2023-02-05T13:51:43.352Z,95453.56
2023-02-05T13:54:30.904Z,95451.38
2023-02-05T13:57:15.390Z,95456.72
2023-02-05T13:59:51.720Z,95463.72
2023-02-05T14:02:34.896Z,95457.84
2023-02-05T14:05:05.166Z,95466.19
2023-02-05T14:07:37.939Z,95457.47
2023-02-05T14:10:25.049Z,95468.09
2023-02-05T14:12:55.265Z,95455.88
2023-02-05T14:15:39.363Z,95467.03
2023-02-05T14:18:10.179Z,95458.84
2023-02-05T14:20:44.892Z,95458.88
2023-02-05T14:23:17.339Z,95461.88
2023-02-05T14:26:11.910Z,95462.09
2023-02-05T14:28:52.644Z,95457.09
2023-02-05T14:31:52.619Z,95457.94
2023-02-05T14:37:36.271Z,95458.88
2023-02-05T14:40:24.675Z,95450.81
2023-02-05T14:43:08.463Z,95462.00
2023-02-05T14:45:46.603Z,95459.94
2023-02-05T14:48:23.874Z,95462.28
2023-02-05T14:51:04.548Z,95475.38
2023-02-05T14:53:37.501Z,95464.50
2023-02-05T14:56:07.441Z,95472.13
2023-02-05T14:58:41.047Z,95460.53
2023-02-05T15:01:32.368Z,95464.34
2023-02-05T15:04:03.476Z,95476.34
2023-02-05T15:06:42.591Z,95475.75
2023-02-05T15:09:19.191Z,95478.78
2023-02-05T15:11:58.877Z,95475.81
2023-02-05T15:14:44.819Z,95466.69
2023-02-05T15:17:52.571Z,95470.06
2023-02-05T15:20:26.888Z,95477.31
2023-02-05T15:23:02.820Z,95482.22
2023-02-05T15:25:40.976Z,95478.13
2023-02-05T15:28:20.424Z,95485.34
2023-02-05T15:30:58.812Z,95475.56
2023-02-05T15:33:41.713Z,95486.44
2023-02-05T15:36:19.470Z,95477.84
2023-02-05T15:38:53.655Z,95489.16
2023-02-05T15:41:29.752Z,95487.13
2023-02-05T15:44:00.894Z,95494.34
2023-02-05T15:46:32.911Z,95493.53
2023-02-05T15:49:02.995Z,95492.06
2023-02-05T15:51:35.811Z,95499.00
2023-02-05T15:54:08.047Z,95492.44
2023-02-05T15:56:43.917Z,95491.06
2023-02-05T15:59:17.036Z,95493.00
2023-02-05T16:01:49.495Z,95496.38
2023-02-05T16:04:21.151Z,95501.16
2023-02-05T16:06:50.788Z,95499.25
2023-02-05T16:09:21.553Z,95494.34
2023-02-05T16:11:53.562Z,95487.28
2023-02-05T16:14:24.452Z,95499.09
2023-02-05T16:17:06.274Z,95504.97
2023-02-05T16:19:42.423Z,95500.09
2023-02-05T16:22:25.809Z,95498.84
2023-02-05T16:25:01.533Z,95489.44
2023-02-05T16:27:37.588Z,95503.50
2023-02-05T16:30:13.354Z,95504.97
2023-02-05T16:32:43.875Z,95498.44
2023-02-05T16:35:21.992Z,95499.25
2023-02-05T16:37:52.330Z,95504.72
2023-02-05T16:40:35.838Z,95510.44
2023-02-05T16:43:27.887Z,95499.41
2023-02-05T16:46:27.682Z,95502.38
2023-02-05T16:49:00.447Z,95502.53
2023-02-05T16:51:38.259Z,95506.22
2023-02-05T16:54:32.329Z,95506.03
2023-02-05T16:57:06.712Z,95496.09
2023-02-05T16:59:49.758Z,95506.22
2023-02-05T17:02:29.181Z,95506.34
2023-02-05T17:05:01.819Z,95507.16
2023-02-05T17:07:32.953Z,95509.19
2023-02-05T17:10:17.512Z,95507.03
2023-02-05T17:12:54.339Z,95512.84
2023-02-05T17:15:31.835Z,95512.72
2023-02-05T17:18:06.549Z,95512.56
2023-02-05T17:20:36.220Z,95509.31
2023-02-05T17:23:10.052Z,95501.56
2023-02-05T17:25:41.704Z,95501.78
2023-02-05T17:28:16.861Z,95495.28
2023-02-05T17:30:49.354Z,95499.38
2023-02-05T17:33:21.375Z,95498.00
2023-02-05T17:35:51.224Z,95500.34
2023-02-05T17:38:23.702Z,95506.47
2023-02-05T17:41:13.933Z,95501.41
2023-02-05T17:43:43.761Z,95500.75
2023-02-05T17:46:17.273Z,95486.69
2023-02-05T17:48:47.035Z,95492.69
2023-02-05T17:51:22.174Z,95494.59
2023-02-05T17:53:51.813Z,95496.25
2023-02-05T17:56:21.698Z,95502.13
2023-02-05T17:58:52.412Z,95502.38
2023-02-05T18:01:23.596Z,95500.47
2023-02-05T18:03:53.354Z,95498.44
2023-02-05T18:06:22.704Z,95508.22
2023-02-05T18:08:52.470Z,95508.50
2023-02-05T18:11:21.750Z,95507.41
2023-02-05T18:13:51.081Z,95507.69
2023-02-05T18:16:20.318Z,95513.41
2023-02-05T18:18:51.002Z,95504.13
2023-02-05T18:21:21.674Z,95511.78
2023-02-05T18:23:52.770Z,95511.50
2023-02-05T18:26:22.947Z,95512.97
2023-02-05T18:28:52.025Z,95518.31
2023-02-05T18:31:21.327Z,95527.88
2023-02-05T18:33:53.733Z,95523.78
2023-02-05T18:36:23.284Z,95532.50
2023-02-05T18:38:53.358Z,95528.00
2023-02-05T18:41:23.092Z,95531.41
2023-02-05T18:43:55.373Z,95524.88
2023-02-05T18:46:25.054Z,95523.78
2023-02-05T18:48:57.060Z,95526.09
2023-02-05T18:51:26.147Z,95523.50
2023-02-05T18:53:55.277Z,95523.25
2023-02-05T18:56:25.484Z,95516.81
2023-02-05T18:58:59.423Z,95520.38
2023-02-05T19:01:29.352Z,95518.59
2023-02-05T19:04:03.076Z,95517.66
2023-02-05T19:06:32.962Z,95514.78
2023-02-05T19:09:03.316Z,95516.94
2023-02-05T19:11:34.295Z,95517.75
2023-02-05T19:14:08.025Z,95518.97
2023-02-05T19:16:37.541Z,95512.47
2023-02-05T19:19:08.744Z,95511.78
2023-02-05T19:21:37.965Z,95515.88
2023-02-05T19:24:07.843Z,95514.50
2023-02-05T19:26:38.578Z,95517.50
2023-02-05T19:29:16.783Z,95522.25
2023-02-05T19:31:47.291Z,95520.22
2023-02-05T19:34:18.613Z,95524.84
2023-02-05T19:36:47.715Z,95529.44
2023-02-05T19:39:16.873Z,95537.63
2023-02-05T19:41:48.523Z,95540.34
2023-02-05T19:44:18.938Z,95541.41
2023-02-05T19:46:49.708Z,95535.72
2023-02-05T19:49:22.939Z,95535.31
2023-02-05T19:51:54.497Z,95536.00
2023-02-05T19:54:24.412Z,95536.50
2023-02-05T19:56:53.500Z,95531.75
2023-02-05T19:59:22.653Z,95546.47
2023-02-05T20:01:51.799Z,95541.31
2023-02-05T20:04:25.096Z,95547.03
2023-02-05T20:06:57.254Z,95544.31
2023-02-05T20:09:27.214Z,95550.94
2023-02-05T20:11:56.658Z,95544.38
2023-02-05T20:14:26.169Z,95559.28
2023-02-05T20:16:55.522Z,95550.97
2023-02-05T20:19:26.214Z,95568.56
2023-02-05T20:21:55.294Z,95565.28
2023-02-05T20:24:24.649Z,95563.50
2023-02-05T20:26:54.036Z,95569.06
2023-02-05T20:29:40.484Z,95567.53
2023-02-05T20:32:11.288Z,95565.78
2023-02-05T20:34:45.117Z,95563.38
2023-02-05T20:37:14.361Z,95559.50
2023-02-05T20:39:45.504Z,95564.16
2023-02-05T20:42:14.928Z,95553.13
2023-02-05T20:44:45.147Z,95558.88
2023-02-05T20:47:16.004Z,95566.22
2023-02-05T20:49:46.547Z,95565.84
2023-02-05T20:52:15.834Z,95560.81
2023-02-05T20:54:44.923Z,95561.03
2023-02-05T20:57:14.078Z,95566.09
2023-02-05T20:59:43.028Z,95564.16
2023-02-05T21:02:13.905Z,95564.56
2023-02-05T21:04:43.124Z,95570.84
2023-02-05T21:07:13.665Z,95576.59
2023-02-05T21:09:42.670Z,95575.34
2023-02-05T21:12:11.614Z,95583.22
2023-02-05T21:14:40.541Z,95566.97
2023-02-05T21:17:10.665Z,95568.75
2023-02-05T21:19:40.713Z,95568.75
2023-02-05T21:22:09.821Z,95571.06
2023-02-05T21:24:40.842Z,95577.63
2023-02-05T21:27:09.955Z,95574.66
2023-02-05T21:29:38.983Z,95576.72
2023-02-05T21:32:08.318Z,95575.91
2023-02-05T21:34:38.055Z,95576.94
2023-02-05T21:37:07.115Z,95582.72
2023-02-05T21:39:37.489Z,95585.03
2023-02-05T21:42:08.595Z,95591.84
2023-02-05T21:44:37.504Z,95590.22
2023-02-05T21:47:06.639Z,95592.78
2023-02-05T21:49:35.629Z,95588.56
2023-02-05T21:52:04.678Z,95600.78
2023-02-05T21:54:35.055Z,95602.41
2023-02-05T21:57:04.219Z,95608.81
2023-02-05T21:59:35.289Z,95601.06
2023-02-05T22:02:04.407Z,95603.47
2023-02-05T22:04:34.267Z,95598.97
2023-02-05T22:07:03.372Z,95604.03
2023-02-05T22:09:33.121Z,95603.72
2023-02-05T22:12:04.024Z,95600.84
2023-02-05T22:14:35.855Z,95595.56
2023-02-05T22:17:05.097Z,95597.41
2023-02-05T22:19:34.712Z,95606.63
2023-02-05T22:22:04.919Z,95593.44
2023-02-05T22:24:34.484Z,95601.31
2023-02-05T22:27:03.802Z,95608.13
2023-02-05T22:29:34.525Z,95609.00
2023-02-05T22:32:04.165Z,95612.22
2023-02-05T22:34:33.180Z,95610.50
2023-02-05T22:37:02.376Z,95608.44
2023-02-05T22:39:31.586Z,95604.38
2023-02-05T22:42:04.613Z,95596.06
2023-02-05T22:44:35.117Z,95598.41
2023-02-05T22:47:04.221Z,95602.75
2023-02-05T22:49:33.238Z,95603.91
2023-02-05T22:52:02.780Z,95603.09
2023-02-05T22:54:31.859Z,95600.13
2023-02-05T22:57:00.831Z,95600.50
2023-02-05T22:59:30.099Z,95586.09
2023-02-05T23:02:00.561Z,95589.91
2023-02-05T23:04:29.572Z,95592.91
2023-02-05T23:06:58.606Z,95596.06
2023-02-05T23:09:27.607Z,95598.84
2023-02-05T23:11:58.022Z,95598.31
2023-02-05T23:14:27.155Z,95601.97
2023-02-05T23:16:59.343Z,95598.56
2023-02-05T23:19:29.697Z,95606.34
2023-02-05T23:21:58.721Z,95608.03
2023-02-05T23:24:28.864Z,95606.44
2023-02-05T23:26:58.376Z,95612.44
2023-02-05T23:29:27.432Z,95604.84
2023-02-05T23:31:56.439Z,95612.09
2023-02-05T23:34:25.514Z,95612.47
2023-02-05T23:36:56.912Z,95621.84
2023-02-05T23:39:26.072Z,95607.97
2023-02-05T23:41:55.060Z,95608.00
2023-02-05T23:44:24.511Z,95615.06
2023-02-05T23:46:53.868Z,95612.19
2023-02-05T23:49:23.695Z,95610.19
2023-02-05T23:51:54.603Z,95604.44
2023-02-05T23:54:26.033Z,95610.63
2023-02-05T23:56:58.093Z,95609.16
2023-02-05T23:59:27.207Z,95611.28
